Time;durP1;ratioP1;P1;durP2;ratioP2;P2;SDS_P1;SDS_P2;PMS_P1;PMS_P2;Temp;Humidity;BMP_temperature;BMP_pressure;BME280_temperature;BME280_humidity;BME280_pressure;Samples;Min_cycle;Max_cycle;Signal;HPM_P1;HPM_P2
2022/06/21 00:00:19;;;;;;;2.47;2.28;;;11.90;99.90;;;;;;7373206;19;20770;-79
2022/06/21 00:02:45;;;;;;;2.40;2.20;;;12.00;99.90;;;;;;7376161;19;21109;-79
2022/06/21 00:05:34;;;;;;;2.17;2.07;;;11.90;99.90;;;;;;7379349;19;20609;-79
2022/06/21 00:08:02;;;;;;;2.40;2.20;;;11.90;99.90;;;;;;7379409;19;20320;-77
2022/06/21 00:10:27;;;;;;;2.35;2.20;;;11.90;99.90;;;;;;7382106;19;20320;-78
2022/06/21 00:12:53;;;;;;;3.13;2.50;;;11.90;99.90;;;;;;7377933;19;20353;-76
2022/06/21 00:15:19;;;;;;;2.70;2.50;;;11.80;99.90;;;;;;7383020;19;20891;-77
2022/06/21 00:17:47;;;;;;;2.15;2.05;;;11.70;99.90;;;;;;7380591;19;20367;-80
2022/06/21 00:20:13;;;;;;;2.80;2.60;;;11.70;99.90;;;;;;7380871;19;20403;-81
2022/06/21 00:22:39;;;;;;;2.35;2.15;;;11.70;99.90;;;;;;7378732;19;20321;-79
2022/06/21 00:25:15;;;;;;;2.80;2.50;;;11.70;99.90;;;;;;7341759;19;23280;-77
2022/06/21 00:27:40;;;;;;;3.60;2.33;;;11.60;99.90;;;;;;7276936;19;2004497;-81
2022/06/21 00:30:07;;;;;;;2.40;2.20;;;11.60;99.90;;;;;;7381765;19;20329;-81
2022/06/21 00:32:32;;;;;;;2.58;2.38;;;11.50;99.90;;;;;;7374475;19;20380;-82
2022/06/21 00:34:58;;;;;;;2.53;2.33;;;11.50;99.90;;;;;;7381074;19;20301;-81
2022/06/21 00:37:23;;;;;;;2.20;2.10;;;11.40;99.90;;;;;;7378570;19;20763;-75
2022/06/21 00:39:51;;;;;;;3.10;2.30;;;11.40;99.90;;;;;;7379374;19;20416;-83
2022/06/21 00:42:28;;;;;;;2.53;2.30;;;11.40;99.90;;;;;;7378222;19;20360;-79
2022/06/21 00:45:02;;;;;;;2.28;1.98;;;11.30;99.90;;;;;;7380239;19;20332;-81
2022/06/21 00:47:44;;;;;;;2.45;2.20;;;11.20;99.90;;;;;;7374652;19;20361;-80
2022/06/21 00:50:16;;;;;;;2.53;2.28;;;11.20;99.90;;;;;;7277158;19;2004765;-78
2022/06/21 00:52:45;;;;;;;1.80;1.70;;;11.20;99.90;;;;;;7377016;19;20408;-77
2022/06/21 00:55:13;;;;;;;4.05;2.20;;;11.20;99.90;;;;;;7378604;19;20333;-78
2022/06/21 00:57:49;;;;;;;2.20;2.00;;;11.10;99.90;;;;;;7376340;19;20454;-79
2022/06/21 01:00:34;;;;;;;2.60;2.10;;;11.10;99.90;;;;;;7381137;19;20851;-82
2022/06/21 01:03:13;;;;;;;2.38;2.17;;;11.00;99.90;;;;;;7378608;19;20327;-80
2022/06/21 01:05:40;;;;;;;2.38;2.17;;;11.00;99.90;;;;;;7278053;19;2004546;-81
2022/06/21 01:08:05;;;;;;;2.13;2.03;;;11.00;99.90;;;;;;7377490;19;20356;-80
2022/06/21 01:10:31;;;;;;;2.10;2.00;;;11.00;99.90;;;;;;7379912;19;20301;-78
2022/06/21 01:13:02;;;;;;;2.17;2.00;;;10.90;99.90;;;;;;7378864;19;22802;-79
2022/06/21 01:15:33;;;;;;;2.17;2.08;;;10.90;99.90;;;;;;7378455;19;20309;-80
2022/06/21 01:18:00;;;;;;;3.00;2.08;;;10.90;99.90;;;;;;7378397;19;20317;-79
2022/06/21 01:20:27;;;;;;;2.35;2.15;;;10.90;99.90;;;;;;7380514;19;20389;-77
2022/06/21 01:23:27;;;;;;;3.75;2.40;;;10.80;99.90;;;;;;7377592;19;20333;-78
2022/06/21 01:26:04;;;;;;;2.10;2.00;;;10.80;99.90;;;;;;7276606;19;2004329;-80
2022/06/21 01:28:30;;;;;;;2.35;2.15;;;10.90;99.90;;;;;;7378026;19;20358;-77
2022/06/21 01:30:56;;;;;;;2.38;2.17;;;10.80;99.90;;;;;;7377144;19;20328;-77
2022/06/21 01:33:41;;;;;;;2.55;2.00;;;10.80;99.90;;;;;;7375656;19;20360;-78
2022/06/21 01:36:17;;;;;;;2.13;1.92;;;10.80;99.90;;;;;;7380229;19;20335;-79
2022/06/21 01:39:01;;;;;;;2.53;2.13;;;10.70;99.90;;;;;;7274119;19;2004830;-81
2022/06/21 01:41:43;;;;;;;2.22;2.13;;;10.70;99.90;;;;;;7375433;19;20360;-78
2022/06/21 01:44:12;;;;;;;2.43;2.23;;;10.70;99.90;;;;;;7275857;19;2004454;-80
2022/06/21 01:46:37;;;;;;;2.38;2.00;;;10.60;99.90;;;;;;7378905;19;20320;-79
2022/06/21 01:49:12;;;;;;;2.30;2.10;;;10.60;99.90;;;;;;7377405;19;20552;-81
2022/06/21 01:51:55;;;;;;;2.58;2.35;;;10.60;99.90;;;;;;7376205;19;20332;-79
2022/06/21 01:54:21;;;;;;;3.58;2.28;;;10.60;99.90;;;;;;7277738;19;2008037;-76
2022/06/21 01:56:47;;;;;;;2.85;2.35;;;10.60;99.90;;;;;;7378244;19;20955;-78
2022/06/21 01:59:21;;;;;;;2.53;2.20;;;10.60;99.90;;;;;;7377945;19;20353;-79
2022/06/21 02:01:51;;;;;;;2.08;1.98;;;10.60;99.90;;;;;;7375501;19;20688;-77
2022/06/21 02:04:20;;;;;;;2.60;2.40;;;10.50;99.90;;;;;;7378416;19;20440;-80
2022/06/21 02:06:45;;;;;;;3.88;2.20;;;10.60;99.90;;;;;;7368384;19;20368;-79
2022/06/21 02:09:32;;;;;;;2.60;2.30;;;10.60;99.90;;;;;;7378053;19;20863;-79
2022/06/21 02:12:05;;;;;;;2.10;1.90;;;10.60;99.90;;;;;;7375234;19;20329;-78
2022/06/21 02:14:35;;;;;;;3.60;2.10;;;10.50;99.90;;;;;;7377966;19;20320;-76
2022/06/21 02:17:04;;;;;;;2.75;2.13;;;10.50;99.90;;;;;;7375664;19;20317;-77
2022/06/21 02:19:45;;;;;;;2.30;2.10;;;10.50;99.90;;;;;;7378677;19;20330;-79
2022/06/21 02:22:14;;;;;;;2.43;2.23;;;10.50;99.90;;;;;;7271987;19;2004631;-84
2022/06/21 02:24:39;;;;;;;2.73;1.80;;;10.60;99.90;;;;;;7376375;19;20331;-79
2022/06/21 02:27:05;;;;;;;2.55;2.17;;;10.50;99.90;;;;;;7375595;19;20348;-77
2022/06/21 02:29:31;;;;;;;2.45;2.20;;;10.50;99.90;;;;;;7377292;19;20328;-77
2022/06/21 02:31:57;;;;;;;2.20;2.00;;;10.50;99.90;;;;;;7371610;19;20341;-77
2022/06/21 02:34:29;;;;;;;2.17;2.00;;;10.50;99.90;;;;;;7376525;19;20340;-77
2022/06/21 02:36:57;;;;;;;2.30;2.10;;;10.50;99.90;;;;;;7378169;19;20347;-80
2022/06/21 02:39:24;;;;;;;2.15;1.95;;;10.40;99.90;;;;;;7374808;19;20394;-78
2022/06/21 02:41:53;;;;;;;2.17;1.97;;;10.40;99.90;;;;;;7365905;19;20320;-81
2022/06/21 02:44:32;;;;;;;2.30;2.10;;;10.40;99.90;;;;;;7373393;19;20337;-81
2022/06/21 02:47:05;;;;;;;2.53;2.33;;;10.40;99.90;;;;;;7373781;19;20340;-77
2022/06/21 02:49:36;;;;;;;3.00;2.10;;;10.30;99.90;;;;;;7374665;19;20305;-80
2022/06/21 02:52:10;;;;;;;2.20;2.00;;;10.30;99.90;;;;;;7372856;19;20346;-81
2022/06/21 02:55:05;;;;;;;2.42;2.03;;;10.30;99.90;;;;;;7372157;19;20323;-81
2022/06/21 02:57:34;;;;;;;2.60;1.98;;;10.20;99.90;;;;;;7269567;19;2004374;-78
2022/06/21 02:59:59;;;;;;;2.72;2.00;;;10.20;99.90;;;;;;7374100;19;20313;-78
2022/06/21 03:02:26;;;;;;;2.20;2.00;;;10.20;99.90;;;;;;7372634;19;21313;-78
2022/06/21 03:04:56;;;;;;;2.17;2.03;;;10.20;99.90;;;;;;7372812;19;20328;-83
2022/06/21 03:07:40;;;;;;;3.15;2.10;;;10.30;99.90;;;;;;7372587;19;20448;-79
2022/06/21 03:10:16;;;;;;;2.30;2.10;;;10.20;99.90;;;;;;7374834;19;20416;-78
2022/06/21 03:12:41;;;;;;;2.20;2.00;;;10.20;99.90;;;;;;7270050;19;2004325;-80
2022/06/21 03:15:09;;;;;;;2.55;2.25;;;10.20;99.90;;;;;;7372690;19;20344;-78
2022/06/21 03:17:47;;;;;;;3.25;2.40;;;10.20;99.90;;;;;;7371314;19;20974;-80
2022/06/21 03:20:16;;;;;;;2.38;2.10;;;10.20;99.90;;;;;;7270317;19;2019045;-79
2022/06/21 03:22:42;;;;;;;6.50;2.50;;;10.20;99.90;;;;;;7371287;19;20316;-76
2022/06/21 03:25:27;;;;;;;4.22;2.10;;;10.10;99.90;;;;;;7373152;19;20325;-77
2022/06/21 03:27:58;;;;;;;6.10;2.30;;;10.10;99.90;;;;;;7266136;19;2019826;-81
2022/06/21 03:30:31;;;;;;;2.80;2.13;;;10.20;99.90;;;;;;7371499;19;20368;-80
2022/06/21 03:32:57;;;;;;;2.80;2.10;;;10.20;99.90;;;;;;7373392;19;20332;-84
2022/06/21 03:35:24;;;;;;;2.53;2.33;;;10.20;99.90;;;;;;7372417;19;20358;-80
2022/06/21 03:37:49;;;;;;;3.53;2.10;;;10.20;99.90;;;;;;7378009;19;21141;-81
2022/06/21 03:43:25;;;;;;;2.63;2.20;;;10.20;99.90;;;;;;7376006;19;20691;-79
2022/06/21 03:45:51;;;;;;;2.35;2.20;;;10.20;99.90;;;;;;7261540;19;2010835;-88
2022/06/21 03:48:35;;;;;;;2.80;2.50;;;10.20;99.90;;;;;;7387524;19;20327;-87
2022/06/21 03:51:09;;;;;;;2.88;2.40;;;10.20;99.90;;;;;;7387684;19;20313;-82
2022/06/21 03:53:38;;;;;;;2.60;2.28;;;10.20;99.90;;;;;;7388600;19;20357;-81
2022/06/21 03:56:08;;;;;;;4.80;2.60;;;10.20;99.90;;;;;;7386684;19;20332;-82
2022/06/21 03:59:04;;;;;;;2.80;2.22;;;10.20;99.90;;;;;;7384960;19;20918;-85
2022/06/21 04:02:19;;;;;;;7.03;2.60;;;10.20;99.90;;;;;;7281429;19;2019108;-85
2022/06/21 04:04:52;;;;;;;2.42;2.10;;;10.20;99.90;;;;;;7173087;19;2004610;-83
2022/06/21 04:07:54;;;;;;;3.10;2.30;;;10.20;99.90;;;;;;7377240;19;20345;-79
2022/06/21 04:10:25;;;;;;;3.03;2.40;;;10.30;99.90;;;;;;7279791;19;2004467;-78
2022/06/21 04:13:02;;;;;;;4.15;2.80;;;10.40;99.90;;;;;;7383165;19;20349;-81
2022/06/21 04:15:33;;;;;;;2.95;2.45;;;10.50;99.90;;;;;;7379554;19;20348;-80
2022/06/21 04:17:58;;;;;;;5.45;2.50;;;10.50;99.90;;;;;;7377784;19;20352;-79
2022/06/21 04:20:32;;;;;;;2.57;2.37;;;10.60;99.90;;;;;;7386848;19;20363;-79
2022/06/21 04:23:10;;;;;;;2.65;2.45;;;10.80;99.90;;;;;;7379387;19;20368;-81
2022/06/21 04:25:46;;;;;;;3.03;2.50;;;10.80;99.90;;;;;;7379764;19;20289;-85
2022/06/21 04:28:24;;;;;;;2.60;2.38;;;10.90;99.90;;;;;;7278349;19;2004398;-81
2022/06/21 04:30:51;;;;;;;3.80;2.70;;;10.90;99.90;;;;;;7383570;19;20336;-85
2022/06/21 04:33:34;;;;;;;2.58;2.38;;;11.00;99.90;;;;;;7381675;19;20379;-83
2022/06/21 04:36:12;;;;;;;6.65;2.80;;;11.10;99.90;;;;;;7377934;19;20340;-81
2022/06/21 04:38:44;;;;;;;2.60;2.38;;;11.20;99.90;;;;;;7378846;19;20324;-76
2022/06/21 04:41:14;;;;;;;2.75;2.45;;;11.20;99.90;;;;;;7379028;19;20799;-79
2022/06/21 04:43:42;;;;;;;2.72;2.47;;;11.30;99.90;;;;;;7379875;19;20461;-77
2022/06/21 04:46:24;;;;;;;3.20;2.70;;;11.40;99.90;;;;;;7376123;19;20345;-80
2022/06/21 04:48:59;;;;;;;3.20;2.50;;;11.40;99.90;;;;;;7275568;19;2018407;-82
2022/06/21 04:52:05;;;;;;;2.78;2.50;;;11.50;99.90;;;;;;7383785;19;20871;-84
2022/06/21 04:54:32;;;;;;;2.47;2.28;;;11.60;99.90;;;;;;7282338;19;2004282;-83
2022/06/21 04:57:03;;;;;;;2.70;2.50;;;11.70;99.90;;;;;;7382113;19;20333;-83
2022/06/21 04:59:35;;;;;;;3.13;2.80;;;11.80;99.90;;;;;;7381723;19;20348;-82
2022/06/21 05:02:01;;;;;;;2.83;2.40;;;11.90;99.90;;;;;;7379476;19;20348;-81
2022/06/21 05:04:34;;;;;;;3.90;2.60;;;12.00;99.90;;;;;;7383743;19;20361;-77
2022/06/21 05:07:02;;;;;;;3.28;2.65;;;12.00;99.90;;;;;;7379103;19;20414;-83
2022/06/21 05:09:28;;;;;;;3.97;2.60;;;12.10;99.90;;;;;;7381185;19;20601;-78
2022/06/21 05:12:25;;;;;;;5.78;2.60;;;12.20;99.90;;;;;;7378852;19;20328;-81
2022/06/21 05:14:55;;;;;;;2.50;2.30;;;12.20;99.90;;;;;;7279347;19;2004669;-80
2022/06/21 05:17:21;;;;;;;4.20;2.83;;;12.30;99.90;;;;;;7378656;19;20356;-79
2022/06/21 05:19:51;;;;;;;2.75;2.50;;;12.40;99.90;;;;;;7381106;19;20391;-82
2022/06/21 05:22:50;;;;;;;4.63;2.80;;;12.50;99.90;;;;;;7379116;19;20349;-83
2022/06/21 05:25:27;;;;;;;3.53;2.90;;;12.70;99.90;;;;;;7276551;19;2004265;-83
2022/06/21 05:28:02;;;;;;;3.70;2.53;;;12.80;99.90;;;;;;7376390;19;20344;-79
2022/06/21 05:30:39;;;;;;;2.75;2.42;;;12.80;99.90;;;;;;7381638;19;20427;-82
2022/06/21 05:33:35;;;;;;;2.65;2.42;;;13.00;99.90;;;;;;7380267;19;20319;-78
2022/06/21 05:36:06;;;;;;;6.90;2.60;;;13.20;99.90;;;;;;7279643;19;2004234;-79
2022/06/21 05:38:32;;;;;;;4.73;2.57;;;13.40;99.90;;;;;;7381387;19;20312;-81
2022/06/21 05:41:29;;;;;;;4.55;2.80;;;13.40;99.90;;;;;;7385292;19;20336;-82
2022/06/21 05:43:57;;;;;;;2.90;2.63;;;13.50;99.90;;;;;;7282222;19;2004386;-79
2022/06/21 05:46:23;;;;;;;3.87;2.60;;;13.60;99.90;;;;;;7381602;19;20333;-79
2022/06/21 05:48:49;;;;;;;2.38;2.17;;;13.80;99.90;;;;;;7382361;19;20333;-78
2022/06/21 05:51:21;;;;;;;3.50;2.50;;;13.80;99.90;;;;;;7385273;19;20341;-78
2022/06/21 05:53:49;;;;;;;5.05;2.50;;;14.00;99.90;;;;;;7384915;19;20946;-77
2022/06/21 05:56:16;;;;;;;3.97;2.38;;;14.20;99.90;;;;;;7380101;19;21354;-77
2022/06/21 05:58:58;;;;;;;4.05;2.40;;;14.30;99.90;;;;;;7379297;19;20400;-85
2022/06/21 06:01:30;;;;;;;3.60;2.30;;;14.40;99.90;;;;;;7388248;19;20332;-84
2022/06/21 06:04:13;;;;;;;3.30;2.70;;;14.40;99.90;;;;;;7390538;19;20324;-82
2022/06/21 06:06:39;;;;;;;4.13;2.42;;;14.40;99.90;;;;;;7384552;19;20319;-80
2022/06/21 06:09:19;;;;;;;4.30;2.40;;;14.40;99.90;;;;;;7386002;19;20308;-80
2022/06/21 06:12:08;;;;;;;3.78;2.60;;;14.40;99.90;;;;;;7284227;19;2004531;-88
2022/06/21 06:14:40;;;;;;;3.97;2.20;;;14.50;99.90;;;;;;7385299;19;20706;-82
2022/06/21 06:17:12;;;;;;;2.78;2.50;;;14.70;99.90;;;;;;7385472;19;21406;-82
2022/06/21 06:19:43;;;;;;;3.85;2.40;;;14.70;99.90;;;;;;7389113;19;20340;-84
2022/06/21 06:22:44;;;;;;;2.63;2.40;;;14.70;99.90;;;;;;7386182;19;20847;-81
2022/06/21 06:25:10;;;;;;;3.42;2.60;;;14.60;99.90;;;;;;7278990;19;2004791;-79
2022/06/21 06:27:59;;;;;;;3.73;2.10;;;14.80;99.90;;;;;;7375115;19;20372;-77
2022/06/21 06:30:39;;;;;;;2.55;2.33;;;14.90;99.90;;;;;;7276993;19;2004180;-78
2022/06/21 06:33:22;;;;;;;2.45;2.25;;;15.20;99.90;;;;;;7379593;19;20839;-79
2022/06/21 06:35:48;;;;;;;3.90;2.53;;;15.30;99.90;;;;;;7274116;19;2017785;-78
2022/06/21 06:38:14;;;;;;;2.65;2.45;;;15.40;99.90;;;;;;7375438;19;20337;-80
2022/06/21 06:40:42;;;;;;;5.05;2.78;;;15.50;99.90;;;;;;7379676;19;20312;-81
2022/06/21 06:43:16;;;;;;;3.60;2.35;;;15.70;99.90;;;;;;7384685;19;20884;-79
2022/06/21 06:45:42;;;;;;;4.63;2.42;;;15.80;99.90;;;;;;7379878;19;20339;-81
2022/06/21 06:48:20;;;;;;;2.77;2.10;;;15.90;99.90;;;;;;7401892;19;20345;-84
2022/06/21 06:50:51;;;;;;;5.97;2.55;;;16.00;99.90;;;;;;7307471;19;2004405;-87
2022/06/21 06:53:44;;;;;;;2.22;2.03;;;16.10;99.90;;;;;;7391318;19;20329;-78
2022/06/21 06:56:17;;;;;;;3.15;2.55;;;16.30;99.90;;;;;;7381460;19;20356;-79
2022/06/21 06:58:49;;;;;;;2.60;2.40;;;16.40;99.90;;;;;;7280270;19;2004681;-79
2022/06/21 07:01:23;;;;;;;3.50;2.30;;;16.30;99.90;;;;;;7384962;19;20816;-78
2022/06/21 07:03:57;;;;;;;2.80;2.05;;;16.60;99.90;;;;;;7386388;19;20335;-83
2022/06/21 07:06:41;;;;;;;3.15;2.25;;;16.50;99.90;;;;;;7382642;19;21234;-76
2022/06/21 07:09:23;;;;;;;3.72;2.38;;;16.50;99.90;;;;;;7381901;19;20347;-76
2022/06/21 07:12:07;;;;;;;3.50;2.10;;;16.50;99.90;;;;;;7286004;19;2006009;-77
2022/06/21 07:14:33;;;;;;;2.67;2.20;;;16.50;99.90;;;;;;7392992;19;20324;-79
2022/06/21 07:17:04;;;;;;;2.25;2.05;;;16.70;99.90;;;;;;7390233;19;20464;-80
2022/06/21 07:19:30;;;;;;;2.53;2.33;;;16.80;99.90;;;;;;7391593;19;20320;-78
2022/06/21 07:21:55;;;;;;;3.97;2.00;;;16.80;99.90;;;;;;7387963;19;20343;-81
2022/06/21 07:24:21;;;;;;;4.43;2.10;;;16.90;99.90;;;;;;7399396;19;20346;-81
2022/06/21 07:27:07;;;;;;;2.33;1.98;;;17.00;99.90;;;;;;7399780;19;20300;-78
2022/06/21 07:29:38;;;;;;;3.38;2.63;;;17.10;99.90;;;;;;7396279;19;20333;-78
2022/06/21 07:32:09;;;;;;;2.43;2.20;;;17.50;99.90;;;;;;7398331;19;20384;-80
2022/06/21 07:35:07;;;;;;;2.17;1.98;;;17.40;99.90;;;;;;7399423;19;20309;-79
2022/06/21 07:37:47;;;;;;;3.65;2.30;;;17.70;99.90;;;;;;7295990;19;2004227;-78
2022/06/21 07:40:17;;;;;;;2.93;2.50;;;17.90;99.90;;;;;;7396112;19;20312;-81
2022/06/21 07:43:24;;;;;;;2.73;2.20;;;18.10;99.90;;;;;;7396215;19;20894;-79
2022/06/21 07:45:53;;;;;;;3.50;2.00;;;18.10;99.90;;;;;;7188940;19;2019647;-78
2022/06/21 07:48:33;;;;;;;2.22;1.80;;;18.10;99.90;;;;;;7395615;19;20305;-78
2022/06/21 07:51:02;;;;;;;2.45;2.05;;;18.30;99.90;;;;;;7395480;19;20853;-79
2022/06/21 07:53:36;;;;;;;3.03;2.08;;;18.20;99.90;;;;;;7373515;19;20873;-80
2022/06/21 07:56:08;;;;;;;3.63;2.20;;;18.10;99.90;;;;;;7394847;19;20855;-79
2022/06/21 07:58:43;;;;;;;1.77;1.67;;;18.30;99.90;;;;;;7398568;19;20317;-79
2022/06/21 08:07:07;;;;;;;2.30;1.83;;;18.60;99.90;;;;;;7295001;19;2004570;-78
2022/06/21 08:09:55;;;;;;;3.33;2.03;;;18.90;99.90;;;;;;7396405;19;20301;-79
2022/06/21 08:12:20;;;;;;;2.70;1.65;;;19.20;99.90;;;;;;7293249;19;2019991;-79
2022/06/21 08:14:46;;;;;;;2.00;1.80;;;19.20;99.90;;;;;;7375961;19;20316;-79
2022/06/21 08:17:40;;;;;;;4.37;1.57;;;18.90;99.90;;;;;;7397187;19;20317;-79
2022/06/21 08:20:15;;;;;;;2.28;1.75;;;19.20;99.90;;;;;;7294562;19;2004485;-79
2022/06/21 08:22:46;;;;;;;1.98;1.60;;;19.30;99.90;;;;;;7395479;19;20297;-79
2022/06/21 08:25:22;;;;;;;3.13;1.85;;;19.60;99.90;;;;;;7397077;19;20315;-79
2022/06/21 08:28:01;;;;;;;1.80;1.70;;;19.70;99.90;;;;;;7293162;19;2004542;-78
2022/06/21 08:30:52;;;;;;;1.65;1.55;;;19.70;99.90;;;;;;7394729;19;20321;-80
2022/06/21 08:33:43;;;;;;;2.33;1.83;;;20.00;99.90;;;;;;7292562;19;2019807;-78
2022/06/21 08:36:24;;;;;;;1.50;1.40;;;20.00;99.90;;;;;;7396464;19;20314;-79
2022/06/21 08:39:06;;;;;;;2.15;1.73;;;20.40;99.90;;;;;;7286509;19;2005315;-78
2022/06/21 08:41:52;;;;;;;1.50;1.40;;;20.50;99.90;;;;;;7384560;19;20851;-77
2022/06/21 08:45:40;;;;;;;1.80;1.60;;;20.60;99.90;;;;;;7279916;19;2004353;-77
2022/06/21 08:47:57;;;;;;;1.70;1.60;;;20.60;99.90;;;;;;7173852;19;2005408;-77
2022/06/21 08:50:51;;;;;;;1.80;1.60;;;20.90;99.90;;;;;;7282870;19;2004316;-77
2022/06/21 08:53:31;;;;;;;1.60;1.50;;;20.60;99.90;;;;;;7280652;19;2019762;-76
2022/06/21 08:56:26;;;;;;;2.35;1.70;;;20.70;99.90;;;;;;7381110;19;20336;-78
2022/06/21 08:59:17;;;;;;;2.20;1.80;;;20.50;99.90;;;;;;7276251;19;2004344;-77
2022/06/21 09:01:53;;;;;;;1.77;1.63;;;20.90;99.90;;;;;;7382573;19;20317;-76
2022/06/21 09:04:23;;;;;;;1.52;1.42;;;21.40;99.90;;;;;;7280833;19;2004515;-77
2022/06/21 09:07:04;;;;;;;2.10;1.80;;;21.70;99.90;;;;;;7380563;19;20696;-78
2022/06/21 09:09:54;;;;;;;1.83;1.60;;;21.90;99.90;;;;;;7384910;19;20308;-78
2022/06/21 09:12:27;;;;;;;1.40;1.23;;;22.20;99.90;;;;;;7282254;19;2004389;-77
2022/06/21 09:15:23;;;;;;;2.00;1.40;;;22.10;99.90;;;;;;7379561;19;20337;-77
2022/06/21 09:18:06;;;;;;;2.30;1.40;;;21.60;99.90;;;;;;7273430;19;2006514;-76
2022/06/21 09:20:46;;;;;;;1.83;1.30;;;21.90;99.90;;;;;;7381914;19;20332;-77
2022/06/21 09:23:50;;;;;;;2.28;1.20;;;21.90;99.90;;;;;;7382270;19;20340;-77
2022/06/21 09:26:34;;;;;;;2.08;1.40;;;22.00;99.90;;;;;;7173172;19;2004419;-76
2022/06/21 09:29:20;;;;;;;1.40;1.30;;;22.40;99.90;;;;;;7380746;19;20344;-76
2022/06/21 09:32:02;;;;;;;1.52;1.42;;;22.90;99.90;;;;;;7278834;19;2004319;-78
2022/06/21 09:34:34;;;;;;;1.50;1.35;;;23.20;99.90;;;;;;7381468;19;20348;-77
2022/06/21 09:37:17;;;;;;;1.50;1.40;;;23.60;99.90;;;;;;7379284;19;20344;-77
2022/06/21 09:40:09;;;;;;;1.77;1.30;;;23.80;99.90;;;;;;7381710;19;20325;-77
2022/06/21 09:42:42;;;;;;;1.55;1.38;;;23.80;99.50;;;;;;7278482;19;2004760;-77
2022/06/21 09:45:36;;;;;;;2.38;1.20;;;24.10;99.90;;;;;;7381686;19;20329;-78
2022/06/21 09:48:23;;;;;;;1.93;1.20;;;24.00;96.80;;;;;;7274432;19;2009299;-76
2022/06/21 09:51:06;;;;;;;2.10;1.20;;;24.10;95.60;;;;;;7281082;19;2004376;-77
2022/06/21 09:53:38;;;;;;;1.50;1.40;;;25.00;98.20;;;;;;7381102;19;20390;-77
2022/06/21 09:56:42;;;;;;;1.38;1.27;;;25.30;96.10;;;;;;7377076;19;20372;-77
2022/06/21 09:59:15;;;;;;;1.30;1.20;;;25.10;93.70;;;;;;7280372;19;2004154;-77
2022/06/21 10:02:02;;;;;;;1.48;1.38;;;24.40;94.40;;;;;;7380950;19;20301;-77
2022/06/21 10:04:33;;;;;;;1.90;1.48;;;24.70;96.60;;;;;;7277573;19;2004462;-77
2022/06/21 10:07:14;;;;;;;1.48;1.30;;;24.60;98.30;;;;;;7381736;19;20398;-77
2022/06/21 10:09:52;;;;;;;1.48;1.23;;;24.80;93.70;;;;;;7381374;19;20329;-77
2022/06/21 10:12:29;;;;;;;1.55;1.30;;;24.50;93.70;;;;;;7381618;19;20667;-77
2022/06/21 10:15:24;;;;;;;1.70;1.30;;;24.50;92.80;;;;;;7275731;19;2004435;-76
2022/06/21 10:18:34;;;;;;;1.42;1.30;;;24.80;96.90;;;;;;7272125;19;2005245;-78
2022/06/21 10:21:14;;;;;;;2.08;1.40;;;24.80;93.60;;;;;;7277089;19;2004183;-79
2022/06/21 10:23:54;;;;;;;1.40;1.30;;;24.40;94.10;;;;;;7380470;19;20309;-77
2022/06/21 10:26:55;;;;;;;1.38;1.27;;;24.10;93.90;;;;;;7274998;19;2017833;-77
2022/06/21 10:29:34;;;;;;;1.30;1.20;;;24.40;93.60;;;;;;7275253;19;2004358;-77
2022/06/21 10:32:34;;;;;;;2.03;1.30;;;24.90;96.10;;;;;;7379381;19;20316;-77
2022/06/21 10:35:30;;;;;;;1.60;1.30;;;25.00;94.30;;;;;;7277588;19;2006000;-78
2022/06/21 10:38:14;;;;;;;1.05;1.05;;;25.20;93.60;;;;;;7273749;19;2004817;-77
2022/06/21 10:40:47;;;;;;;1.30;1.20;;;24.20;93.60;;;;;;7378357;19;20340;-78
2022/06/21 10:43:25;;;;;;;1.10;1.10;;;24.50;94.50;;;;;;7381575;19;20329;-77
2022/06/21 10:45:54;;;;;;;1.55;1.20;;;24.90;92.90;;;;;;7374699;19;20926;-78
2022/06/21 10:48:45;;;;;;;1.35;1.25;;;25.00;91.50;;;;;;7381297;19;20308;-79
2022/06/21 10:51:21;;;;;;;1.17;1.07;;;25.00;90.90;;;;;;7278951;19;2004883;-77
2022/06/21 10:54:08;;;;;;;1.27;1.20;;;25.50;92.40;;;;;;7381173;19;20309;-77
2022/06/21 10:57:14;;;;;;;1.17;1.03;;;25.40;90.30;;;;;;7273678;19;2004485;-78
2022/06/21 11:02:47;;;;;;;1.23;1.13;;;25.20;89.80;;;;;;7277535;19;2004178;-77
2022/06/21 11:05:35;;;;;;;1.55;1.10;;;26.00;86.50;;;;;;7378347;19;20943;-77
2022/06/21 11:08:45;;;;;;;1.30;1.20;;;26.50;86.90;;;;;;7274210;19;2004428;-76
2022/06/21 11:11:35;;;;;;;1.50;1.10;;;26.60;80.60;;;;;;7276599;19;2004384;-78
2022/06/21 11:14:09;;;;;;;1.73;1.20;;;26.90;83.40;;;;;;7276944;19;2019923;-76
2022/06/21 11:16:58;;;;;;;1.80;1.20;;;27.00;83.60;;;;;;7373534;19;20315;-77
2022/06/21 11:19:47;;;;;;;1.88;1.38;;;26.60;76.50;;;;;;7376506;19;20324;-78
2022/06/21 11:22:41;;;;;;;1.08;1.05;;;26.10;75.00;;;;;;7275507;19;2006121;-77
2022/06/21 11:25:32;;;;;;;1.17;1.17;;;25.80;77.20;;;;;;7272503;19;2020039;-77
2022/06/21 11:28:34;;;;;;;1.75;1.05;;;26.40;77.70;;;;;;7272771;19;2004409;-77
2022/06/21 11:31:08;;;;;;;1.15;1.00;;;26.70;76.90;;;;;;7273632;19;2004989;-77
2022/06/21 11:34:00;;;;;;;1.40;1.00;;;27.40;82.20;;;;;;7377472;19;20652;-76
2022/06/21 11:36:35;;;;;;;2.10;1.00;;;28.00;80.10;;;;;;7375964;19;20351;-77
2022/06/21 11:39:18;;;;;;;1.45;1.30;;;27.60;71.80;;;;;;7273796;19;2019886;-77
2022/06/21 11:42:05;;;;;;;1.30;0.90;;;27.80;73.30;;;;;;7380012;19;20344;-77
2022/06/21 11:44:45;;;;;;;1.50;1.08;;;27.60;69.30;;;;;;7277476;19;2004732;-79
2022/06/21 11:47:11;;;;;;;1.25;1.15;;;28.00;71.40;;;;;;7386645;19;20423;-76
2022/06/21 11:49:40;;;;;;;1.73;1.27;;;27.70;70.80;;;;;;7389169;19;20301;-77
2022/06/21 11:52:31;;;;;;;1.23;1.10;;;25.60;63.60;;;;;;7387026;19;20866;-77
2022/06/21 11:55:20;;;;;;;2.00;1.20;;;27.00;74.40;;;;;;7285419;19;2004509;-78
2022/06/21 11:58:02;;;;;;;1.52;1.15;;;26.90;71.30;;;;;;7390202;19;20321;-78
2022/06/21 12:00:47;;;;;;;2.45;1.38;;;27.20;67.30;;;;;;7290875;19;2018980;-77
2022/06/21 12:03:30;;;;;;;2.38;1.10;;;27.60;70.50;;;;;;7394370;19;20366;-77
2022/06/21 12:06:01;;;;;;;1.40;1.13;;;28.00;67.20;;;;;;7395984;19;20340;-77
2022/06/21 12:08:33;;;;;;;2.70;1.13;;;28.50;66.00;;;;;;7291131;19;2020296;-77
2022/06/21 12:11:27;;;;;;;1.48;1.10;;;28.50;69.70;;;;;;7395700;19;20312;-78
2022/06/21 12:14:11;;;;;;;1.45;1.10;;;28.00;65.00;;;;;;7396914;19;20655;-77
2022/06/21 12:17:15;;;;;;;2.40;1.20;;;27.90;66.50;;;;;;7290277;19;2005899;-77
2022/06/21 12:19:42;;;;;;;1.15;1.02;;;26.80;71.10;;;;;;7289660;19;2004709;-76
2022/06/21 12:22:27;;;;;;;1.20;1.10;;;27.20;69.60;;;;;;7394591;19;20332;-77
2022/06/21 12:24:52;;;;;;;1.17;1.08;;;27.70;67.80;;;;;;7395932;19;20392;-77
2022/06/21 12:27:18;;;;;;;1.20;1.10;;;27.60;64.00;;;;;;7395930;19;20301;-78
2022/06/21 12:29:44;;;;;;;2.80;1.17;;;28.10;68.00;;;;;;7391402;19;20975;-78
2022/06/21 12:32:20;;;;;;;2.10;1.00;;;27.80;64.30;;;;;;7382706;19;20736;-77
2022/06/21 12:35:02;;;;;;;1.52;1.23;;;27.60;67.20;;;;;;7385844;19;21548;-77
2022/06/21 12:37:38;;;;;;;1.83;1.07;;;27.50;65.40;;;;;;7281935;19;2004423;-76
2022/06/21 12:40:18;;;;;;;3.05;1.33;;;26.70;64.20;;;;;;7384898;19;20416;-77
2022/06/21 12:43:15;;;;;;;1.43;0.90;;;26.40;63.40;;;;;;7380362;19;20424;-77
2022/06/21 12:46:06;;;;;;;1.23;1.13;;;27.20;68.10;;;;;;7278845;19;2019902;-77
2022/06/21 12:48:52;;;;;;;1.15;1.05;;;27.50;65.70;;;;;;7278800;19;2004937;-77
2022/06/21 12:51:22;;;;;;;0.90;0.90;;;28.00;63.80;;;;;;7381070;19;20373;-77
2022/06/21 12:54:02;;;;;;;1.65;1.17;;;28.00;66.60;;;;;;7382596;19;20319;-78
2022/06/21 12:57:02;;;;;;;1.13;1.02;;;27.70;69.50;;;;;;7277189;19;2004811;-76
2022/06/21 13:00:04;;;;;;;3.75;1.38;;;27.10;71.50;;;;;;7280666;19;2004421;-77
2022/06/21 13:02:46;;;;;;;2.35;1.35;;;26.50;70.90;;;;;;7280397;19;2004470;-76
2022/06/21 13:05:23;;;;;;;2.05;1.30;;;26.40;69.90;;;;;;7381314;19;20341;-77
2022/06/21 13:08:27;;;;;;;1.50;1.00;;;26.10;68.50;;;;;;7379318;19;20832;-77
2022/06/21 13:11:14;;;;;;;1.20;1.10;;;25.60;72.30;;;;;;7282053;19;2004464;-77
2022/06/21 13:14:11;;;;;;;1.70;1.15;;;25.30;76.80;;;;;;7282151;19;2004299;-77
2022/06/21 13:16:47;;;;;;;1.30;1.20;;;25.10;78.40;;;;;;7273476;19;2004332;-76
2022/06/21 13:19:26;;;;;;;1.40;1.30;;;25.80;79.20;;;;;;7380630;19;20336;-76
2022/06/21 13:22:10;;;;;;;3.10;1.50;;;25.90;71.60;;;;;;7379360;19;20775;-77
2022/06/21 13:24:57;;;;;;;1.45;1.15;;;26.30;78.10;;;;;;7277162;19;2004857;-77
2022/06/21 13:27:40;;;;;;;1.00;1.00;;;26.30;74.50;;;;;;7381208;19;20317;-76
2022/06/21 13:30:44;;;;;;;1.73;1.30;;;26.30;74.90;;;;;;7283659;19;2004479;-76
2022/06/21 13:33:45;;;;;;;1.52;1.17;;;26.10;74.70;;;;;;7281439;19;2004666;-78
2022/06/21 13:36:35;;;;;;;1.33;1.17;;;25.80;77.30;;;;;;7281977;19;2004173;-77
2022/06/21 13:39:26;;;;;;;1.30;1.20;;;25.50;78.00;;;;;;7282930;19;2012648;-77
2022/06/21 13:45:28;;;;;;;1.30;1.20;;;26.20;72.20;;;;;;7181425;19;2004466;-77
2022/06/21 13:48:11;;;;;;;1.05;1.05;;;27.20;75.80;;;;;;7384238;19;20342;-77
2022/06/21 13:50:45;;;;;;;1.38;1.27;;;27.40;74.70;;;;;;7283217;19;2004423;-77